createdAt,value
2023-05-06T00:01:15.306Z,4.38
2023-05-06T00:06:38.103Z,4.36
2023-05-06T00:12:00.418Z,4.33
2023-05-06T00:17:22.726Z,4.30
2023-05-06T00:22:45.568Z,4.26
2023-05-06T00:28:07.807Z,4.24
2023-05-06T00:33:30.684Z,4.27
2023-05-06T00:38:52.988Z,4.22
2023-05-06T00:44:15.306Z,4.25
2023-05-06T00:49:38.578Z,4.28
2023-05-06T00:55:01.943Z,4.31
2023-05-06T01:00:26.563Z,4.46
2023-05-06T01:05:59.569Z,4.57
2023-05-06T01:11:41.231Z,4.69
2023-05-06T01:17:06.818Z,4.79
2023-05-06T01:22:32.167Z,4.90
2023-05-06T01:27:54.420Z,4.99
2023-05-06T01:33:25.057Z,5.07
2023-05-06T01:39:12.838Z,5.09
2023-05-06T01:44:37.837Z,5.07
2023-05-06T01:50:01.561Z,5.11
2023-05-06T01:55:24.769Z,5.18
2023-05-06T02:00:47.070Z,5.28
2023-05-06T02:06:09.838Z,5.36
2023-05-06T02:11:32.200Z,5.58
2023-05-06T02:16:55.623Z,5.75
2023-05-06T02:22:17.858Z,5.96
2023-05-06T02:27:40.444Z,5.99
2023-05-06T02:33:02.985Z,5.99
2023-05-06T02:38:25.853Z,6.00
2023-05-06T02:43:48.236Z,5.98
2023-05-06T02:49:10.474Z,5.97
2023-05-06T02:54:32.716Z,5.95
2023-05-06T02:59:54.988Z,5.96
2023-05-06T03:05:17.525Z,5.99
2023-05-06T03:10:39.836Z,5.98
2023-05-06T03:16:05.934Z,5.94
2023-05-06T03:21:28.638Z,5.89
2023-05-06T03:26:51.034Z,5.91
2023-05-06T03:32:16.610Z,5.89
2023-05-06T03:37:39.402Z,5.90
2023-05-06T03:43:01.781Z,5.90
2023-05-06T03:48:24.548Z,5.87
2023-05-06T03:53:47.367Z,5.86
2023-05-06T03:59:09.617Z,5.88
2023-05-06T04:04:31.859Z,5.88
2023-05-06T04:09:54.094Z,5.88
2023-05-06T04:15:16.876Z,5.92
2023-05-06T04:20:39.714Z,5.97
2023-05-06T04:26:02.411Z,5.99
2023-05-06T04:31:24.702Z,6.06
2023-05-06T04:42:20.225Z,6.09
2023-05-06T04:47:42.531Z,5.92
2023-05-06T04:53:04.760Z,5.92
2023-05-06T04:58:27.097Z,5.94
2023-05-06T05:03:49.725Z,5.95
2023-05-06T05:09:12.293Z,6.00
2023-05-06T05:14:35.194Z,6.06
2023-05-06T05:19:57.438Z,6.12
2023-05-06T05:25:20.291Z,6.14
2023-05-06T05:30:42.605Z,6.18
2023-05-06T05:36:05.266Z,6.20
2023-05-06T05:41:27.872Z,6.29
2023-05-06T05:46:50.865Z,6.34
2023-05-06T05:52:13.320Z,6.31
2023-05-06T05:57:36.046Z,6.39
2023-05-06T06:02:58.343Z,6.43
2023-05-06T06:08:20.653Z,6.40
2023-05-06T06:13:43.147Z,6.42
2023-05-06T06:19:06.792Z,6.49
2023-05-06T06:24:29.089Z,6.51
2023-05-06T06:29:51.831Z,6.52
2023-05-06T06:35:15.037Z,6.51
2023-05-06T06:40:37.611Z,6.48
2023-05-06T06:46:01.733Z,6.41
2023-05-06T06:51:24.748Z,6.34
2023-05-06T06:56:47.761Z,6.34
2023-05-06T07:02:10.127Z,6.30
2023-05-06T07:07:33.023Z,6.34
2023-05-06T07:12:56.037Z,6.38
2023-05-06T07:18:18.936Z,6.47
2023-05-06T07:23:41.575Z,6.42
2023-05-06T07:34:37.059Z,6.52
2023-05-06T07:39:59.386Z,6.32
2023-05-06T07:45:24.331Z,6.26
2023-05-06T07:50:46.860Z,6.28
2023-05-06T07:56:10.295Z,6.26
2023-05-06T08:01:32.686Z,6.23
2023-05-06T08:06:55.114Z,6.14
2023-05-06T08:12:17.765Z,6.02
2023-05-06T08:17:40.236Z,5.98
2023-05-06T08:23:02.512Z,5.96
2023-05-06T08:28:25.364Z,5.91
2023-05-06T08:33:47.952Z,5.90
2023-05-06T08:39:10.188Z,5.75
2023-05-06T08:44:35.961Z,5.71
2023-05-06T08:49:58.334Z,5.67
2023-05-06T08:55:23.427Z,5.61
2023-05-06T09:00:47.068Z,5.67
2023-05-06T09:06:11.976Z,5.70
2023-05-06T09:11:41.145Z,5.72
2023-05-06T09:17:05.952Z,5.74
2023-05-06T09:22:28.745Z,5.67
2023-05-06T09:27:54.105Z,5.65
2023-05-06T09:33:17.248Z,5.63
2023-05-06T09:38:39.508Z,5.63
2023-05-06T09:44:02.744Z,5.66
2023-05-06T09:49:26.146Z,5.81
2023-05-06T09:54:49.037Z,5.80
2023-05-06T10:00:16.338Z,5.89
2023-05-06T10:05:40.727Z,5.93
2023-05-06T10:11:04.539Z,5.96
2023-05-06T10:16:28.025Z,6.09
2023-05-06T10:21:53.281Z,6.10
2023-05-06T10:27:17.178Z,6.12
2023-05-06T10:32:41.374Z,6.20
2023-05-06T10:38:05.633Z,6.23
2023-05-06T10:43:52.306Z,6.29
2023-05-06T10:49:26.843Z,6.33
2023-05-06T10:54:54.163Z,6.50
2023-05-06T11:00:16.953Z,6.51
2023-05-06T11:05:40.539Z,6.57
2023-05-06T11:11:04.698Z,6.65
2023-05-06T11:16:47.013Z,6.65
2023-05-06T11:22:12.141Z,6.71
2023-05-06T11:27:26.506Z,6.75
2023-05-06T11:32:35.610Z,6.72
2023-05-06T11:37:44.488Z,6.70
2023-05-06T11:42:51.798Z,6.79
2023-05-06T11:47:59.592Z,6.87
2023-05-06T11:53:06.857Z,6.83
2023-05-06T11:58:36.019Z,6.76
2023-05-06T12:04:00.186Z,6.83
2023-05-06T12:09:24.929Z,6.78
2023-05-06T12:14:48.650Z,6.78
2023-05-06T12:20:11.404Z,6.78
2023-05-06T12:25:34.833Z,6.82
2023-05-06T12:30:57.259Z,6.89
2023-05-06T12:36:21.169Z,6.93
2023-05-06T12:41:54.777Z,6.94
2023-05-06T12:47:26.263Z,7.02
2023-05-06T12:52:51.202Z,7.06
2023-05-06T12:58:15.153Z,7.03
2023-05-06T13:03:38.871Z,7.10
2023-05-06T13:09:01.497Z,7.13
2023-05-06T13:14:23.777Z,7.17
2023-05-06T13:19:46.519Z,7.20
2023-05-06T13:25:09.724Z,7.22
2023-05-06T13:30:32.807Z,7.18
2023-05-06T13:35:55.051Z,7.16
2023-05-06T13:41:20.091Z,7.20
2023-05-06T13:46:44.760Z,7.23
2023-05-06T13:52:08.182Z,7.30
2023-05-06T13:57:30.474Z,7.31
2023-05-06T14:02:52.853Z,7.38
2023-05-06T14:08:15.340Z,7.31
2023-05-06T14:13:38.745Z,7.26
2023-05-06T14:19:01.304Z,7.23
2023-05-06T14:24:23.591Z,7.28
2023-05-06T14:29:46.442Z,7.39
2023-05-06T14:35:08.801Z,7.46
2023-05-06T14:40:31.674Z,7.47
2023-05-06T14:45:54.453Z,7.48
2023-05-06T14:51:16.901Z,7.44
2023-05-06T14:56:39.196Z,7.40
2023-05-06T15:02:03.091Z,7.36
2023-05-06T15:07:25.648Z,7.33
2023-05-06T15:12:48.473Z,7.26
2023-05-06T15:18:11.437Z,7.21
2023-05-06T15:23:34.830Z,7.14
2023-05-06T15:28:57.083Z,7.20
2023-05-06T15:34:21.217Z,7.22
2023-05-06T15:39:45.039Z,7.23
2023-05-06T15:45:07.560Z,7.29
2023-05-06T15:50:33.903Z,7.25
2023-05-06T15:55:58.022Z,7.31
2023-05-06T16:01:25.427Z,7.33
2023-05-06T16:06:43.795Z,7.34
2023-05-06T16:12:06.122Z,7.35
2023-05-06T16:17:28.433Z,7.42
2023-05-06T16:22:57.116Z,7.39
2023-05-06T16:28:23.942Z,7.32
2023-05-06T16:33:46.255Z,7.34
2023-05-06T16:39:08.512Z,7.31
2023-05-06T16:44:30.879Z,7.26
2023-05-06T16:49:53.287Z,7.31
2023-05-06T16:55:15.895Z,7.30
2023-05-06T17:00:39.504Z,7.29
2023-05-06T17:06:02.340Z,7.32
2023-05-06T17:11:25.062Z,7.33
2023-05-06T17:16:47.653Z,7.31
2023-05-06T17:22:10.433Z,7.27
2023-05-06T17:27:32.744Z,7.28
2023-05-06T17:32:55.166Z,7.25
2023-05-06T17:38:18.254Z,7.22
2023-05-06T17:43:40.555Z,7.18
2023-05-06T17:49:02.926Z,7.13
2023-05-06T17:54:25.524Z,7.11
2023-05-06T17:59:48.430Z,7.09
2023-05-06T18:05:11.560Z,7.07
2023-05-06T18:10:34.681Z,7.04
2023-05-06T18:22:32.582Z,7.15
2023-05-06T18:27:55.310Z,7.00
2023-05-06T18:33:17.603Z,6.99
2023-05-06T18:38:40.099Z,6.92
2023-05-06T18:44:02.357Z,6.92
2023-05-06T18:49:24.620Z,6.92
2023-05-06T18:54:47.442Z,6.90
2023-05-06T19:00:09.910Z,6.88
2023-05-06T19:05:32.349Z,6.80
2023-05-06T19:10:56.797Z,6.72
2023-05-06T19:16:19.470Z,6.69
2023-05-06T19:21:42.017Z,6.65
2023-05-06T19:27:04.348Z,6.62
2023-05-06T19:32:27.974Z,6.54
2023-05-06T19:37:50.853Z,6.48
2023-05-06T19:43:14.562Z,6.38
2023-05-06T19:48:37.210Z,6.30
2023-05-06T19:53:59.917Z,6.25
2023-05-06T19:59:22.831Z,6.22
2023-05-06T20:04:45.376Z,6.17
2023-05-06T20:10:07.826Z,6.15
2023-05-06T20:15:31.441Z,6.13
2023-05-06T20:20:53.983Z,6.08
2023-05-06T20:26:16.622Z,6.06
2023-05-06T20:31:39.017Z,6.00
2023-05-06T20:37:01.753Z,5.96
2023-05-06T20:42:27.466Z,6.02
2023-05-06T20:47:50.017Z,6.00
2023-05-06T20:53:13.026Z,5.97
2023-05-06T20:58:35.271Z,5.97
2023-05-06T21:03:59.140Z,5.99
2023-05-06T21:09:21.463Z,6.01
2023-05-06T21:14:44.894Z,6.02
2023-05-06T21:20:07.358Z,6.02
2023-05-06T21:25:29.967Z,6.04
2023-05-06T21:30:53.892Z,6.03
2023-05-06T21:36:16.475Z,6.08
2023-05-06T21:41:38.957Z,6.09
2023-05-06T21:47:01.662Z,6.10
2023-05-06T21:52:25.172Z,6.12
